Time;durP1;ratioP1;P1;durP2;ratioP2;P2;SDS_P1;SDS_P2;PMS_P1;PMS_P2;Temp;Humidity;BMP_temperature;BMP_pressure;BME280_temperature;BME280_humidity;BME280_pressure;Samples;Min_cycle;Max_cycle;Signal;HPM_P1;HPM_P2
2023/07/24 00:02:05;;;;;;;11.88;10.10;;;16.90;99.90;;;;;;5047709;28;20052;-74
2023/07/24 00:04:31;;;;;;;13.38;8.88;;;16.90;99.90;;;;;;5057232;28;20064;-74
2023/07/24 00:06:57;;;;;;;12.55;8.93;;;16.90;99.90;;;;;;5061458;28;20937;-74
2023/07/24 00:09:23;;;;;;;12.18;9.50;;;16.90;99.90;;;;;;5048830;28;20032;-74
2023/07/24 00:11:49;;;;;;;14.07;9.35;;;16.90;99.90;;;;;;5051287;28;20048;-74
2023/07/24 00:14:16;;;;;;;12.70;9.20;;;16.90;99.90;;;;;;5069268;28;20163;-74
2023/07/24 00:16:41;;;;;;;12.48;10.10;;;16.80;99.90;;;;;;5062533;28;20110;-74
2023/07/24 00:19:07;;;;;;;16.88;10.63;;;16.90;99.90;;;;;;5081628;28;20048;-74
2023/07/24 00:21:33;;;;;;;13.15;9.63;;;16.90;99.90;;;;;;5052290;28;20032;-74
2023/07/24 00:23:59;;;;;;;11.90;9.30;;;16.80;99.90;;;;;;5066343;28;20495;-74
2023/07/24 00:26:25;;;;;;;12.88;9.43;;;16.80;99.90;;;;;;5056887;28;20122;-73
2023/07/24 00:28:51;;;;;;;12.77;9.73;;;16.80;99.90;;;;;;5038851;28;20036;-74
2023/07/24 00:31:16;;;;;;;12.30;9.80;;;16.80;99.90;;;;;;5060429;28;20503;-73
2023/07/24 00:33:42;;;;;;;13.13;9.85;;;16.80;99.90;;;;;;5046799;28;20116;-73
2023/07/24 00:36:08;;;;;;;11.85;9.32;;;16.70;99.90;;;;;;5062124;28;20112;-73
2023/07/24 00:38:34;;;;;;;10.80;9.70;;;16.70;99.90;;;;;;5072352;28;20039;-73
2023/07/24 00:40:59;;;;;;;12.75;10.35;;;16.70;99.90;;;;;;5066660;28;20045;-74
2023/07/24 00:43:25;;;;;;;13.05;11.25;;;16.70;99.90;;;;;;5052102;28;20506;-73
2023/07/24 00:45:51;;;;;;;13.13;11.73;;;16.60;99.90;;;;;;5067060;28;20075;-73
2023/07/24 00:48:17;;;;;;;13.27;11.95;;;16.60;99.90;;;;;;5060200;28;20051;-73
2023/07/24 00:50:45;;;;;;;14.50;12.90;;;16.60;99.90;;;;;;5042183;28;20040;-73
2023/07/24 00:53:12;;;;;;;16.80;14.98;;;16.60;99.90;;;;;;5043893;28;20040;-73
2023/07/24 00:55:39;;;;;;;16.60;14.90;;;16.60;99.90;;;;;;5049695;28;20065;-73
2023/07/24 00:58:05;;;;;;;17.08;15.38;;;16.70;99.90;;;;;;5050136;28;20051;-73
2023/07/24 01:00:31;;;;;;;18.42;16.70;;;16.70;99.90;;;;;;5064553;28;20071;-73
2023/07/24 01:02:59;;;;;;;18.83;17.17;;;16.70;99.90;;;;;;5053702;28;20557;-73
2023/07/24 01:05:26;;;;;;;20.35;18.55;;;16.70;99.90;;;;;;5057742;28;20069;-73
2023/07/24 01:07:52;;;;;;;19.23;17.50;;;16.70;99.90;;;;;;5061479;28;20155;-73
2023/07/24 01:10:18;;;;;;;19.75;17.98;;;16.70;99.90;;;;;;5062081;28;20060;-73
2023/07/24 01:12:59;;;;;;;22.50;20.30;;;16.70;99.90;;;;;;5062312;28;20044;-74
2023/07/24 01:15:31;;;;;;;20.65;18.75;;;16.70;99.90;;;;;;5047791;28;20040;-74
2023/07/24 01:18:00;;;;;;;20.05;18.25;;;16.80;99.90;;;;;;5056560;28;20404;-73
2023/07/24 01:20:30;;;;;;;19.55;17.73;;;16.80;99.90;;;;;;5059396;28;20529;-73
2023/07/24 01:23:13;;;;;;;20.33;18.52;;;16.80;99.90;;;;;;5062535;28;20048;-73
2023/07/24 01:26:06;;;;;;;18.42;16.85;;;16.80;99.90;;;;;;5057264;28;20102;-74
2023/07/24 01:28:32;;;;;;;18.65;16.95;;;16.90;99.90;;;;;;5042513;28;20051;-73
2023/07/24 01:30:58;;;;;;;18.30;16.70;;;16.90;99.90;;;;;;5044574;28;20037;-73
2023/07/24 01:33:24;;;;;;;18.75;16.95;;;16.90;99.90;;;;;;5053634;28;20483;-74
2023/07/24 01:35:55;;;;;;;17.70;16.20;;;16.90;99.90;;;;;;5047763;28;20040;-74
2023/07/24 01:38:21;;;;;;;18.08;16.38;;;16.90;99.90;;;;;;5040050;28;20048;-74
2023/07/24 01:40:48;;;;;;;17.85;16.13;;;16.90;99.90;;;;;;5058151;28;20048;-73
2023/07/24 01:43:14;;;;;;;16.95;15.45;;;16.90;99.90;;;;;;5044629;28;20148;-73
2023/07/24 01:45:40;;;;;;;17.20;15.57;;;16.90;99.90;;;;;;5036401;28;20569;-74
2023/07/24 01:48:06;;;;;;;16.00;14.57;;;16.90;99.90;;;;;;5043655;28;20052;-73
2023/07/24 01:50:32;;;;;;;16.92;15.32;;;16.80;99.90;;;;;;5035949;28;20059;-74
2023/07/24 01:52:58;;;;;;;16.98;15.20;;;16.80;99.90;;;;;;5053195;28;20248;-74
2023/07/24 01:55:24;;;;;;;16.05;14.60;;;16.80;99.90;;;;;;5055565;28;20044;-74
2023/07/24 01:57:50;;;;;;;15.80;14.27;;;16.80;99.90;;;;;;5054529;28;20514;-73
2023/07/24 02:00:16;;;;;;;15.95;14.55;;;16.80;99.90;;;;;;5038698;28;20044;-73
2023/07/24 02:02:41;;;;;;;15.48;14.18;;;16.80;99.90;;;;;;5053946;28;20092;-73
2023/07/24 02:05:08;;;;;;;15.80;14.40;;;16.80;99.90;;;;;;5063666;28;20076;-73
2023/07/24 02:07:33;;;;;;;16.52;14.93;;;16.80;99.90;;;;;;5042654;28;20124;-73
2023/07/24 02:09:59;;;;;;;17.40;15.18;;;16.80;99.90;;;;;;5057394;28;20041;-73
2023/07/24 02:12:25;;;;;;;14.95;13.57;;;16.80;99.90;;;;;;5058218;28;20037;-73
2023/07/24 02:14:51;;;;;;;15.95;14.48;;;16.80;99.90;;;;;;5059079;28;20122;-73
2023/07/24 02:17:18;;;;;;;16.60;14.90;;;16.80;99.90;;;;;;5044750;28;20048;-73
2023/07/24 02:19:44;;;;;;;15.85;14.25;;;16.80;99.90;;;;;;5057282;28;20076;-73
2023/07/24 02:22:10;;;;;;;16.30;14.77;;;16.80;99.90;;;;;;5037298;28;20231;-73
2023/07/24 02:24:36;;;;;;;15.00;13.70;;;16.80;99.90;;;;;;5060668;28;20160;-73
2023/07/24 02:27:02;;;;;;;17.77;16.00;;;16.80;99.90;;;;;;5059281;28;20040;-74
2023/07/24 02:29:28;;;;;;;15.65;14.18;;;16.80;99.90;;;;;;5040138;28;20138;-73
2023/07/24 02:31:54;;;;;;;17.50;15.73;;;16.80;99.90;;;;;;5065234;28;20380;-73
2023/07/24 02:34:24;;;;;;;18.38;16.70;;;16.80;99.90;;;;;;5063100;28;20052;-73
2023/07/24 02:36:50;;;;;;;15.30;13.90;;;16.80;99.90;;;;;;5052813;28;20040;-73
2023/07/24 02:39:16;;;;;;;16.42;14.93;;;16.70;99.90;;;;;;5046093;28;20047;-73
2023/07/24 02:41:42;;;;;;;16.48;15.00;;;16.70;99.90;;;;;;5074511;28;20051;-73
2023/07/24 02:44:11;;;;;;;17.52;15.93;;;16.70;99.90;;;;;;5055031;28;20483;-74
2023/07/24 02:46:36;;;;;;;16.55;15.15;;;16.70;99.90;;;;;;5071104;28;20157;-73
2023/07/24 02:49:02;;;;;;;17.23;15.73;;;16.70;99.90;;;;;;5060658;28;20044;-73
2023/07/24 02:51:28;;;;;;;16.73;15.15;;;16.60;99.90;;;;;;5053228;28;20032;-73
2023/07/24 02:53:55;;;;;;;17.23;15.65;;;16.60;99.90;;;;;;5046984;28;20033;-73
2023/07/24 02:56:21;;;;;;;15.95;14.48;;;16.60;99.90;;;;;;5054151;28;20055;-73
2023/07/24 02:58:47;;;;;;;16.52;15.02;;;16.60;99.90;;;;;;5036594;28;20119;-73
2023/07/24 03:01:14;;;;;;;16.75;15.18;;;16.60;99.90;;;;;;5055505;28;20041;-73
2023/07/24 03:03:42;;;;;;;16.90;15.38;;;16.60;99.90;;;;;;5067477;28;20074;-73
2023/07/24 03:06:08;;;;;;;18.25;16.58;;;16.60;99.90;;;;;;5061450;28;20669;-73
2023/07/24 03:08:34;;;;;;;17.08;15.45;;;16.60;99.90;;;;;;5046648;28;20076;-73
2023/07/24 03:11:02;;;;;;;15.38;13.98;;;16.60;99.90;;;;;;5049692;28;20520;-74
2023/07/24 03:13:27;;;;;;;17.40;15.80;;;16.50;99.90;;;;;;5064339;28;20150;-73
2023/07/24 03:15:57;;;;;;;16.52;14.38;;;16.60;99.90;;;;;;5064037;28;20047;-74
2023/07/24 03:18:23;;;;;;;16.30;14.77;;;16.50;99.90;;;;;;5060125;28;20064;-73
2023/07/24 03:20:49;;;;;;;17.40;15.90;;;16.50;99.90;;;;;;5078910;28;20128;-73
2023/07/24 03:23:14;;;;;;;15.30;13.95;;;16.50;99.90;;;;;;5066069;28;20135;-73
2023/07/24 03:25:40;;;;;;;17.75;16.00;;;16.50;99.90;;;;;;5058099;28;20529;-74
2023/07/24 03:28:06;;;;;;;16.23;14.55;;;16.50;99.90;;;;;;5052934;28;20056;-73
2023/07/24 03:30:32;;;;;;;15.55;14.13;;;16.50;99.90;;;;;;5074707;28;20125;-74
2023/07/24 03:32:58;;;;;;;15.63;13.93;;;16.50;99.90;;;;;;5048465;28;20550;-74
2023/07/24 03:35:26;;;;;;;14.85;13.55;;;16.40;99.90;;;;;;5060397;28;20510;-73
2023/07/24 03:37:52;;;;;;;15.05;13.65;;;16.40;99.90;;;;;;5064058;28;20055;-73
2023/07/24 03:40:18;;;;;;;14.68;13.30;;;16.50;99.90;;;;;;5056361;28;20041;-73
2023/07/24 03:42:43;;;;;;;13.95;12.65;;;16.40;99.90;;;;;;5064023;28;20044;-74
2023/07/24 03:45:09;;;;;;;15.80;14.30;;;16.50;99.90;;;;;;5067802;28;20154;-74
2023/07/24 03:47:35;;;;;;;14.50;13.20;;;16.50;99.90;;;;;;5063963;28;20037;-74
2023/07/24 03:50:01;;;;;;;14.63;13.20;;;16.50;99.90;;;;;;5046019;28;20363;-74
2023/07/24 03:52:26;;;;;;;14.13;12.82;;;16.50;99.90;;;;;;5052063;28;20475;-74
2023/07/24 03:54:52;;;;;;;15.50;14.10;;;16.50;99.90;;;;;;5035151;28;20109;-74
2023/07/24 03:57:18;;;;;;;15.45;13.82;;;16.50;99.90;;;;;;5046947;28;20036;-74
2023/07/24 03:59:44;;;;;;;14.02;12.73;;;16.50;99.90;;;;;;5044345;28;20075;-74
2023/07/24 04:02:10;;;;;;;13.82;12.52;;;16.50;99.90;;;;;;5037878;28;20052;-74
2023/07/24 04:04:36;;;;;;;13.50;12.27;;;16.50;99.90;;;;;;5038215;28;20612;-74
2023/07/24 04:07:02;;;;;;;14.48;13.18;;;16.50;99.90;;;;;;5057422;28;20399;-74
2023/07/24 04:09:28;;;;;;;14.50;13.10;;;16.50;99.90;;;;;;5056510;28;20045;-74
2023/07/24 04:11:54;;;;;;;14.55;13.13;;;16.50;99.90;;;;;;5060780;28;20510;-74
2023/07/24 04:14:19;;;;;;;14.35;12.95;;;16.60;99.90;;;;;;5055349;28;20049;-74
2023/07/24 04:16:45;;;;;;;14.57;13.23;;;16.60;99.90;;;;;;5060454;28;20057;-73
2023/07/24 04:19:11;;;;;;;15.48;14.07;;;16.50;99.90;;;;;;5047418;28;20044;-74
2023/07/24 04:21:37;;;;;;;15.80;14.23;;;16.60;99.90;;;;;;5055329;28;20052;-73
2023/07/24 04:24:02;;;;;;;14.55;13.35;;;16.60;99.90;;;;;;5052606;28;20103;-74
2023/07/24 04:26:28;;;;;;;13.93;12.57;;;16.60;99.90;;;;;;5037195;28;20080;-74
2023/07/24 04:28:54;;;;;;;14.32;12.93;;;16.60;99.90;;;;;;5062739;28;20033;-74
2023/07/24 04:31:20;;;;;;;14.23;12.93;;;16.50;99.90;;;;;;5052187;28;20078;-73
2023/07/24 04:33:45;;;;;;;15.13;13.60;;;16.60;99.90;;;;;;5038918;28;20048;-74
2023/07/24 04:36:11;;;;;;;15.23;13.82;;;16.60;99.90;;;;;;5051418;28;20131;-74
2023/07/24 04:38:40;;;;;;;14.85;13.55;;;16.60;99.90;;;;;;5037887;28;20041;-74
2023/07/24 04:41:06;;;;;;;13.38;12.18;;;16.60;99.90;;;;;;5061295;28;20407;-74
2023/07/24 04:43:32;;;;;;;14.30;12.90;;;16.60;99.90;;;;;;5065794;28;20036;-73
2023/07/24 04:45:57;;;;;;;14.48;13.10;;;16.60;99.90;;;;;;5047741;28;20236;-74
2023/07/24 04:48:23;;;;;;;14.20;12.90;;;16.60;99.90;;;;;;5059622;28;20135;-73
2023/07/24 04:50:56;;;;;;;17.05;15.43;;;16.60;99.90;;;;;;5047238;28;20134;-74
2023/07/24 04:53:22;;;;;;;14.98;13.57;;;16.60;99.90;;;;;;5049116;28;20051;-74
2023/07/24 04:55:48;;;;;;;16.15;14.65;;;16.60;99.90;;;;;;5045820;28;20123;-73
2023/07/24 04:58:14;;;;;;;15.48;13.98;;;16.60;99.90;;;;;;5063321;28;20123;-74
2023/07/24 05:00:40;;;;;;;15.27;13.77;;;16.60;99.90;;;;;;5058496;28;20044;-74
2023/07/24 05:03:08;;;;;;;15.85;14.27;;;16.60;99.90;;;;;;5062660;28;20055;-74
2023/07/24 05:05:33;;;;;;;15.27;13.85;;;16.60;99.90;;;;;;5055044;28;20041;-74
2023/07/24 05:07:59;;;;;;;16.05;14.65;;;16.60;99.90;;;;;;5062652;28;20604;-74
2023/07/24 05:10:25;;;;;;;17.55;15.80;;;16.60;99.90;;;;;;5047377;28;20075;-74
2023/07/24 05:12:50;;;;;;;16.65;15.15;;;16.60;99.90;;;;;;5047922;28;20044;-73
2023/07/24 05:15:17;;;;;;;15.27;13.88;;;16.70;99.90;;;;;;5059263;28;20055;-74
2023/07/24 05:17:43;;;;;;;15.93;14.43;;;16.70;99.90;;;;;;5037062;28;20360;-74
2023/07/24 05:20:10;;;;;;;16.77;15.38;;;16.60;99.90;;;;;;5050190;28;20074;-74
2023/07/24 05:22:35;;;;;;;15.93;14.43;;;16.70;99.90;;;;;;5054333;28;20045;-74
2023/07/24 05:25:01;;;;;;;15.52;14.13;;;16.70;99.90;;;;;;5049459;28;20038;-74
2023/07/24 05:27:27;;;;;;;16.35;14.75;;;16.70;99.90;;;;;;5047954;28;20075;-74
2023/07/24 05:29:53;;;;;;;16.15;14.60;;;16.80;99.90;;;;;;5062532;28;20590;-74
2023/07/24 05:32:18;;;;;;;17.05;15.45;;;16.80;99.90;;;;;;5058122;28;20055;-74
2023/07/24 05:34:44;;;;;;;17.08;15.50;;;16.80;99.90;;;;;;5046774;28;20075;-74
2023/07/24 05:37:10;;;;;;;16.63;15.13;;;16.90;99.90;;;;;;5062249;28;20056;-74
2023/07/24 05:39:36;;;;;;;15.85;14.45;;;16.90;99.90;;;;;;5045321;28;20058;-74
2023/07/24 05:42:02;;;;;;;17.80;16.17;;;16.90;99.90;;;;;;5047141;28;20048;-74
2023/07/24 05:44:28;;;;;;;17.15;15.65;;;16.90;99.90;;;;;;5044280;28;20049;-75
2023/07/24 05:46:53;;;;;;;17.08;15.57;;;16.90;99.90;;;;;;5057650;28;20053;-74
2023/07/24 05:49:19;;;;;;;17.27;15.70;;;17.00;99.90;;;;;;5030151;28;20041;-74
2023/07/24 05:51:45;;;;;;;16.95;15.27;;;17.00;99.90;;;;;;5039615;28;20040;-74
2023/07/24 05:54:10;;;;;;;16.90;15.30;;;17.00;99.90;;;;;;5045593;28;20098;-74
2023/07/24 05:56:36;;;;;;;17.60;16.00;;;17.00;99.90;;;;;;5053421;28;20513;-74
2023/07/24 05:59:02;;;;;;;17.90;16.15;;;17.10;99.90;;;;;;5057573;28;20041;-74
2023/07/24 06:01:28;;;;;;;17.40;15.82;;;17.00;99.90;;;;;;5055042;28;20502;-74
2023/07/24 06:03:53;;;;;;;19.00;17.30;;;17.10;99.90;;;;;;5052703;28;20048;-74
2023/07/24 06:06:19;;;;;;;16.10;14.70;;;17.10;99.90;;;;;;5034027;28;20818;-74
2023/07/24 06:08:47;;;;;;;18.08;16.48;;;17.10;99.90;;;;;;5056851;28;20047;-74
2023/07/24 06:11:12;;;;;;;16.35;14.80;;;17.10;99.90;;;;;;5055101;28;20060;-73
2023/07/24 06:13:38;;;;;;;17.08;15.40;;;17.10;99.90;;;;;;5052481;28;20033;-74
2023/07/24 06:16:04;;;;;;;17.60;15.88;;;17.10;99.90;;;;;;5054976;28;20086;-74
2023/07/24 06:18:30;;;;;;;16.50;14.90;;;17.10;99.90;;;;;;5053788;28;20052;-73
2023/07/24 06:20:55;;;;;;;18.15;16.38;;;17.20;99.90;;;;;;5041651;28;20048;-74
2023/07/24 06:23:21;;;;;;;17.15;15.43;;;17.20;99.90;;;;;;5040084;28;20077;-73
2023/07/24 06:25:51;;;;;;;16.38;14.88;;;17.30;99.90;;;;;;5056683;28;20089;-73
2023/07/24 06:28:17;;;;;;;17.10;15.50;;;17.30;99.90;;;;;;5057280;28;20047;-74
2023/07/24 06:30:43;;;;;;;16.55;15.00;;;17.40;99.90;;;;;;5051227;28;20384;-73
2023/07/24 06:33:08;;;;;;;15.77;14.18;;;17.40;99.90;;;;;;5041321;28;20040;-73
2023/07/24 06:35:34;;;;;;;16.45;14.85;;;17.50;99.90;;;;;;5041454;28;20664;-74
2023/07/24 06:38:00;;;;;;;16.35;14.85;;;17.50;99.90;;;;;;5052048;28;20056;-74
2023/07/24 06:40:26;;;;;;;14.93;13.63;;;17.50;99.90;;;;;;5043659;28;20460;-74
2023/07/24 06:42:52;;;;;;;14.60;13.20;;;17.60;99.90;;;;;;5038784;28;20522;-73
2023/07/24 06:45:18;;;;;;;14.35;13.00;;;17.70;99.90;;;;;;5063096;28;20041;-73
2023/07/24 06:47:44;;;;;;;15.40;13.90;;;17.70;99.90;;;;;;5042255;28;20040;-74
2023/07/24 06:50:10;;;;;;;16.25;14.38;;;17.70;99.90;;;;;;5061890;28;20041;-73
2023/07/24 06:52:35;;;;;;;15.23;13.40;;;17.70;99.90;;;;;;5039119;28;20075;-73
2023/07/24 06:55:02;;;;;;;15.05;13.55;;;17.80;99.90;;;;;;5055539;28;20131;-73
2023/07/24 06:57:27;;;;;;;15.73;14.18;;;17.80;99.90;;;;;;5061658;28;20365;-73
2023/07/24 06:59:53;;;;;;;15.60;14.07;;;17.80;99.90;;;;;;5043833;28;20040;-74
2023/07/24 07:02:19;;;;;;;15.02;13.02;;;17.80;99.90;;;;;;5058425;28;20052;-74
2023/07/24 07:04:45;;;;;;;15.55;14.05;;;17.80;99.90;;;;;;5056077;28;20040;-73
2023/07/24 07:07:10;;;;;;;14.27;12.80;;;17.80;99.90;;;;;;5061293;28;20127;-73
2023/07/24 07:09:36;;;;;;;13.82;12.40;;;17.80;99.90;;;;;;5052797;28;20076;-73
2023/07/24 07:12:02;;;;;;;15.52;13.98;;;17.90;99.90;;;;;;5041786;28;20498;-73
2023/07/24 07:14:28;;;;;;;15.52;14.02;;;17.90;99.90;;;;;;5042239;28;20033;-74
2023/07/24 07:16:53;;;;;;;15.20;13.70;;;17.90;99.90;;;;;;5064590;28;20728;-74
2023/07/24 07:19:19;;;;;;;13.15;11.82;;;18.00;99.90;;;;;;5047450;28;20059;-74
2023/07/24 07:21:45;;;;;;;15.43;13.82;;;18.00;99.90;;;;;;5046367;28;20483;-74
2023/07/24 07:24:11;;;;;;;16.25;14.55;;;18.10;99.90;;;;;;5055420;28;20478;-74
2023/07/24 07:26:39;;;;;;;15.75;14.15;;;18.10;99.90;;;;;;5042164;28;20048;-73
2023/07/24 07:29:05;;;;;;;15.40;13.77;;;18.20;99.90;;;;;;5069536;28;20126;-75
2023/07/24 07:31:31;;;;;;;15.70;14.00;;;18.20;99.90;;;;;;5072547;28;20127;-74
2023/07/24 07:33:57;;;;;;;15.02;13.38;;;18.30;99.90;;;;;;5057584;28;20123;-74
2023/07/24 07:36:22;;;;;;;16.60;14.35;;;18.30;99.90;;;;;;5049528;28;20123;-74
2023/07/24 07:38:48;;;;;;;14.32;12.88;;;18.30;99.90;;;;;;5040155;28;20796;-74
2023/07/24 07:41:14;;;;;;;14.75;13.25;;;18.40;99.90;;;;;;5052298;28;20660;-74
2023/07/24 07:43:40;;;;;;;15.10;13.60;;;18.50;99.90;;;;;;5057217;28;20112;-74
2023/07/24 07:46:06;;;;;;;14.45;12.18;;;18.50;99.90;;;;;;5053938;28;20361;-74
2023/07/24 07:48:32;;;;;;;13.95;12.45;;;18.60;99.90;;;;;;5039166;28;20585;-74
2023/07/24 07:50:58;;;;;;;13.20;11.70;;;18.60;99.90;;;;;;5048689;28;20123;-74
2023/07/24 07:53:24;;;;;;;13.88;11.52;;;18.70;99.90;;;;;;5051683;28;20037;-74
2023/07/24 07:56:02;;;;;;;15.73;12.32;;;18.70;99.90;;;;;;5054055;28;20132;-74
2023/07/24 07:58:28;;;;;;;12.82;10.98;;;18.70;99.90;;;;;;5045695;28;20124;-74
2023/07/24 08:00:53;;;;;;;15.25;12.20;;;18.70;99.90;;;;;;5043974;28;20128;-73
2023/07/24 08:03:19;;;;;;;12.75;10.98;;;18.80;99.90;;;;;;5050143;28;20059;-73
2023/07/24 08:05:45;;;;;;;13.60;10.23;;;18.80;99.90;;;;;;5053537;28;20071;-74
2023/07/24 08:08:11;;;;;;;10.57;9.50;;;18.90;99.90;;;;;;5055156;28;20128;-73
2023/07/24 08:10:40;;;;;;;12.85;10.27;;;18.90;99.90;;;;;;5057684;28;20127;-73
2023/07/24 08:13:07;;;;;;;13.85;10.18;;;19.00;99.90;;;;;;5040489;28;20052;-74
2023/07/24 08:15:37;;;;;;;14.55;10.82;;;19.00;99.90;;;;;;5057539;28;20072;-73
2023/07/24 08:18:04;;;;;;;14.48;10.25;;;19.00;99.90;;;;;;5060137;28;20095;-74
2023/07/24 08:20:31;;;;;;;10.80;9.05;;;19.00;99.90;;;;;;5039983;28;20660;-74
2023/07/24 08:22:56;;;;;;;9.90;8.90;;;19.10;99.90;;;;;;5055755;28;20079;-74
2023/07/24 08:25:22;;;;;;;11.93;9.00;;;19.20;99.90;;;;;;5039646;28;20078;-73
2023/07/24 08:27:48;;;;;;;11.15;8.88;;;19.20;99.90;;;;;;5063737;28;20076;-74
2023/07/24 08:30:13;;;;;;;12.63;9.90;;;19.30;99.90;;;;;;5033482;28;20633;-74
2023/07/24 08:32:39;;;;;;;12.20;9.43;;;19.40;99.90;;;;;;5038826;28;20420;-74
2023/07/24 08:35:06;;;;;;;10.48;9.05;;;19.40;99.90;;;;;;5047030;28;20045;-73
2023/07/24 08:37:32;;;;;;;12.60;9.20;;;19.50;99.90;;;;;;5044788;28;20041;-73
2023/07/24 08:39:57;;;;;;;14.02;9.43;;;19.50;99.90;;;;;;5058401;28;20044;-73
2023/07/24 08:42:24;;;;;;;12.93;9.13;;;19.50;99.90;;;;;;5037611;28;20068;-74
2023/07/24 08:44:51;;;;;;;13.35;9.82;;;19.50;99.90;;;;;;5056104;28;20183;-74
2023/07/24 08:47:18;;;;;;;12.65;8.70;;;19.60;99.90;;;;;;5038855;28;20056;-74
2023/07/24 08:49:45;;;;;;;13.25;8.60;;;19.60;99.90;;;;;;5050719;28;20041;-74
2023/07/24 08:52:12;;;;;;;12.77;8.65;;;19.60;99.90;;;;;;5051659;28;20049;-73
2023/07/24 08:54:38;;;;;;;11.82;8.95;;;19.60;99.90;;;;;;5047545;28;20041;-74
2023/07/24 08:57:07;;;;;;;13.48;9.98;;;19.70;99.90;;;;;;5044953;28;20067;-74
2023/07/24 08:59:34;;;;;;;14.07;8.90;;;19.70;99.90;;;;;;5051935;28;20040;-74
2023/07/24 09:02:00;;;;;;;14.75;8.65;;;19.60;99.90;;;;;;5040631;28;20036;-73
2023/07/24 09:04:26;;;;;;;13.35;8.40;;;19.70;99.90;;;;;;5055643;28;20041;-74
2023/07/24 09:06:52;;;;;;;13.27;8.00;;;19.60;99.90;;;;;;5059714;28;20094;-74
2023/07/24 09:09:18;;;;;;;13.65;9.00;;;19.70;99.90;;;;;;5052706;28;20601;-74
2023/07/24 09:11:52;;;;;;;13.25;9.13;;;19.90;99.90;;;;;;5045012;28;20043;-74
2023/07/24 09:14:25;;;;;;;10.07;8.07;;;20.00;99.90;;;;;;5038677;28;20201;-74
2023/07/24 09:17:03;;;;;;;12.25;8.98;;;20.10;99.90;;;;;;5045322;28;20168;-75
2023/07/24 09:19:28;;;;;;;10.32;8.13;;;20.00;99.90;;;;;;5047766;28;20044;-73
2023/07/24 09:21:54;;;;;;;11.93;7.78;;;20.10;99.90;;;;;;5038585;28;20047;-73
2023/07/24 09:24:20;;;;;;;10.30;8.05;;;20.30;99.90;;;;;;5054883;28;20501;-73
2023/07/24 09:26:52;;;;;;;10.98;7.47;;;20.60;99.90;;;;;;5049401;28;20063;-73
2023/07/24 09:29:18;;;;;;;13.85;7.82;;;20.80;99.90;;;;;;5036900;28;20076;-73
2023/07/24 09:31:45;;;;;;;11.73;8.05;;;21.10;99.90;;;;;;5066287;28;20079;-73
2023/07/24 09:34:19;;;;;;;12.35;8.88;;;21.30;99.90;;;;;;5052123;28;20499;-73
2023/07/24 09:36:45;;;;;;;11.90;8.82;;;21.50;99.90;;;;;;5058787;28;20065;-74
2023/07/24 09:39:11;;;;;;;9.95;7.93;;;21.60;99.90;;;;;;5062632;28;20061;-72
2023/07/24 09:41:40;;;;;;;11.27;7.40;;;21.70;99.90;;;;;;5060758;28;20048;-73
2023/07/24 09:44:07;;;;;;;9.75;7.55;;;21.70;99.90;;;;;;5065307;28;20127;-73
2023/07/24 09:46:33;;;;;;;9.57;7.38;;;21.70;99.90;;;;;;5049200;28;20062;-73
2023/07/24 09:48:59;;;;;;;10.25;7.50;;;21.80;99.90;;;;;;5067105;28;20044;-74
2023/07/24 09:51:25;;;;;;;11.43;7.35;;;21.80;99.90;;;;;;5056116;28;20037;-73
2023/07/24 09:54:30;;;;;;;10.50;7.97;;;21.80;99.90;;;;;;5064461;28;20078;-73
2023/07/24 09:56:57;;;;;;;10.00;7.43;;;21.70;99.90;;;;;;5039028;28;20052;-73
2023/07/24 09:59:24;;;;;;;12.10;7.20;;;21.50;99.90;;;;;;5060803;28;20040;-73
2023/07/24 10:01:51;;;;;;;10.80;7.28;;;21.60;99.90;;;;;;5043980;28;20174;-72
2023/07/24 10:04:20;;;;;;;10.38;7.05;;;21.60;99.90;;;;;;5048763;28;20044;-73
2023/07/24 10:06:47;;;;;;;10.65;7.88;;;21.70;99.90;;;;;;5044142;28;20543;-74
2023/07/24 10:09:13;;;;;;;10.45;7.40;;;21.70;99.90;;;;;;5045088;28;20055;-74
2023/07/24 10:11:38;;;;;;;10.43;8.10;;;21.90;99.90;;;;;;5038649;28;20047;-74
2023/07/24 10:14:04;;;;;;;9.55;7.45;;;21.90;99.90;;;;;;5058263;28;20049;-74
2023/07/24 10:16:31;;;;;;;11.93;7.30;;;22.10;99.90;;;;;;5058507;28;20045;-74
2023/07/24 10:18:56;;;;;;;9.48;7.07;;;22.20;99.90;;;;;;5060254;28;20059;-74
2023/07/24 10:21:28;;;;;;;10.88;7.80;;;22.40;99.90;;;;;;5057311;28;20044;-73
2023/07/24 10:23:54;;;;;;;9.43;7.43;;;22.40;99.90;;;;;;5057524;28;20047;-74
2023/07/24 10:26:27;;;;;;;13.85;7.10;;;22.40;99.90;;;;;;5059962;28;20044;-74
2023/07/24 10:28:53;;;;;;;10.80;6.68;;;22.50;99.90;;;;;;5067607;28;20048;-74
2023/07/24 10:31:26;;;;;;;10.93;7.65;;;22.60;99.90;;;;;;5060228;28;20166;-74
2023/07/24 10:33:52;;;;;;;10.38;7.40;;;22.80;99.90;;;;;;5063045;28;20126;-75
2023/07/24 10:36:20;;;;;;;12.02;8.13;;;22.90;99.90;;;;;;5047248;28;20079;-74
2023/07/24 10:38:46;;;;;;;10.95;8.57;;;23.00;99.90;;;;;;5061449;28;20037;-74
2023/07/24 10:41:13;;;;;;;10.80;8.02;;;23.20;99.90;;;;;;5037180;28;20056;-74
2023/07/24 10:43:43;;;;;;;14.55;8.10;;;23.30;99.90;;;;;;5063041;28;20041;-73
2023/07/24 10:46:09;;;;;;;11.07;9.15;;;23.40;99.90;;;;;;5054418;28;20046;-74
2023/07/24 10:48:35;;;;;;;9.35;8.25;;;23.40;99.90;;;;;;5041654;28;20215;-74
2023/07/24 10:51:08;;;;;;;10.82;7.35;;;23.40;99.90;;;;;;5055830;28;20356;-74
2023/07/24 10:53:38;;;;;;;11.40;7.90;;;23.30;99.90;;;;;;5057456;28;20047;-74
2023/07/24 10:56:05;;;;;;;;;;;23.30;99.90;;;;;;5040411;28;20120;-74
2023/07/24 10:58:32;;;;;;;8.15;6.20;;;23.10;99.90;;;;;;5053905;28;19921;-74
2023/07/24 11:00:58;;;;;;;10.23;6.10;;;23.00;99.90;;;;;;5054920;28;20044;-74
2023/07/24 11:03:24;;;;;;;9.75;6.53;;;22.80;99.90;;;;;;5049595;28;20056;-74
2023/07/24 11:05:50;;;;;;;15.13;7.70;;;22.70;99.90;;;;;;5045238;28;20047;-75
2023/07/24 11:08:18;;;;;;;13.57;8.57;;;22.60;99.90;;;;;;5039812;28;20053;-75
2023/07/24 11:10:56;;;;;;;14.93;9.60;;;22.30;99.90;;;;;;5054352;28;20048;-74
2023/07/24 11:13:27;;;;;;;14.27;9.48;;;22.00;99.90;;;;;;5052199;28;20053;-74
2023/07/24 11:15:54;;;;;;;12.60;9.00;;;21.70;99.90;;;;;;5043213;28;20724;-74
2023/07/24 11:18:22;;;;;;;13.80;10.70;;;21.60;99.90;;;;;;5057193;28;20048;-74
2023/07/24 11:20:54;;;;;;;10.90;7.85;;;21.50;99.90;;;;;;5044659;28;20039;-74
2023/07/24 11:23:21;;;;;;;9.38;7.03;;;21.40;99.90;;;;;;5046284;28;20048;-74
2023/07/24 11:25:47;;;;;;;8.35;6.80;;;21.30;99.90;;;;;;5047791;28;20070;-73
2023/07/24 11:28:14;;;;;;;10.88;6.90;;;21.30;99.90;;;;;;5039519;28;20059;-73
2023/07/24 11:30:42;;;;;;;9.45;7.60;;;21.20;99.90;;;;;;5055949;28;20432;-74
2023/07/24 11:33:13;;;;;;;9.55;6.97;;;21.10;99.90;;;;;;5047856;28;20044;-74
2023/07/24 11:35:40;;;;;;;10.20;7.78;;;21.10;99.90;;;;;;5054157;28;20058;-74
2023/07/24 11:38:10;;;;;;;10.77;7.95;;;21.10;99.90;;;;;;5058315;28;20558;-74
2023/07/24 11:40:41;;;;;;;11.98;7.95;;;21.10;99.90;;;;;;5049552;28;20042;-73
2023/07/24 11:43:17;;;;;;;11.43;8.02;;;21.20;99.90;;;;;;5065542;28;20075;-74
2023/07/24 11:45:44;;;;;;;12.50;10.40;;;21.20;99.90;;;;;;5063754;28;20128;-73
2023/07/24 11:48:11;;;;;;;10.35;9.07;;;21.20;99.90;;;;;;5062488;28;20052;-74
2023/07/24 11:50:54;;;;;;;13.35;9.85;;;21.20;99.90;;;;;;5065134;28;20048;-73
2023/07/24 11:53:31;;;;;;;11.63;8.82;;;21.30;99.90;;;;;;5058687;28;20340;-73
2023/07/24 11:56:02;;;;;;;10.95;8.55;;;21.50;99.90;;;;;;5061165;28;20395;-73
2023/07/24 11:58:29;;;;;;;12.48;8.93;;;21.60;99.90;;;;;;5057769;28;20210;-73
2023/07/24 12:00:55;;;;;;;12.90;9.57;;;21.70;99.90;;;;;;5065475;28;20074;-73
2023/07/24 12:03:25;;;;;;;14.05;8.50;;;21.90;99.90;;;;;;5056412;28;20122;-73
2023/07/24 12:05:52;;;;;;;11.50;8.20;;;22.00;99.90;;;;;;5057936;28;20041;-73
2023/07/24 12:08:30;;;;;;;14.73;8.25;;;22.20;99.90;;;;;;5044997;28;20056;-74
2023/07/24 12:10:56;;;;;;;12.55;8.73;;;22.30;99.90;;;;;;5065083;28;20386;-73
2023/07/24 12:13:22;;;;;;;12.15;7.82;;;22.40;99.90;;;;;;5078314;28;20067;-73
2023/07/24 12:15:48;;;;;;;10.00;7.93;;;22.60;99.90;;;;;;5057201;28;20041;-73
2023/07/24 12:18:15;;;;;;;9.00;6.78;;;22.70;99.90;;;;;;5072159;28;20067;-75
2023/07/24 12:20:41;;;;;;;11.48;6.97;;;22.80;99.90;;;;;;5066037;28;20059;-74
2023/07/24 12:23:07;;;;;;;10.05;6.88;;;22.80;99.90;;;;;;5071112;28;20052;-74
2023/07/24 12:25:35;;;;;;;11.65;7.90;;;22.70;99.90;;;;;;5060532;28;20072;-73
2023/07/24 12:28:01;;;;;;;11.82;7.72;;;22.70;99.90;;;;;;5061316;28;20072;-73
2023/07/24 12:30:26;;;;;;;12.35;7.90;;;22.80;99.90;;;;;;5044236;28;20744;-74